Time;durP1;ratioP1;P1;durP2;ratioP2;P2;SDS_P1;SDS_P2;PMS_P1;PMS_P2;Temp;Humidity;BMP_temperature;BMP_pressure;BME280_temperature;BME280_humidity;BME280_pressure;Samples;Min_cycle;Max_cycle;Signal;HPM_P1;HPM_P2
2022/07/24 00:00:15;;;;;;;;;;;;;;;31.35;35.73;99144.03;4406664;32;34758;-91
2022/07/24 00:02:43;;;;;;;;;;;;;;;30.43;37.58;99155.87;4406888;32;33552;-93
2022/07/24 00:05:10;;;;;;;;;;;;;;;31.98;34.56;99139.37;4425257;32;34995;-92
2022/07/24 00:07:37;;;;;;;;;;;;;;;31.12;36.31;99145.69;4421367;32;33867;-92
2022/07/24 00:10:05;;;;;;;;;;;;;;;31.00;36.72;99152.78;4421965;32;34338;-91
2022/07/24 00:12:33;;;;;;;;;;;;;;;30.85;37.19;99153.00;4406703;32;33034;-92
2022/07/24 00:15:00;;;;;;;;;;;;;;;31.38;36.58;99146.50;4393587;32;33114;-92
2022/07/24 00:17:28;;;;;;;;;;;;;;;30.69;38.19;99158.56;4406547;32;34516;-93
2022/07/24 00:19:55;;;;;;;;;;;;;;;31.03;37.73;99165.09;4420416;32;33572;-93
2022/07/24 00:22:23;;;;;;;;;;;;;;;31.02;37.86;99168.72;4406218;32;33049;-92
2022/07/24 00:24:51;;;;;;;;;;;;;;;30.02;40.25;99180.06;4388816;32;32746;-92
2022/07/24 00:27:18;;;;;;;;;;;;;;;30.12;40.19;99175.81;4408740;32;34325;-91
2022/07/24 00:29:45;;;;;;;;;;;;;;;30.06;40.20;99182.41;4421423;32;33900;-90
2022/07/24 00:32:13;;;;;;;;;;;;;;;29.44;41.35;99183.88;4421597;32;34206;-91
2022/07/24 00:34:40;;;;;;;;;;;;;;;29.07;42.20;99187.06;4423070;32;33484;-89
2022/07/24 00:37:07;;;;;;;;;;;;;;;28.89;42.46;99188.19;4437391;32;35337;-91
2022/07/24 00:39:35;;;;;;;;;;;;;;;29.62;40.48;99182.69;4400710;32;34801;-90
2022/07/24 00:42:02;;;;;;;;;;;;;;;29.47;40.75;99194.34;4392849;32;33274;-91
2022/07/24 00:44:30;;;;;;;;;;;;;;;29.84;39.99;99192.84;4405112;32;33423;-90
2022/07/24 00:46:57;;;;;;;;;;;;;;;29.82;40.12;99189.41;4418264;32;35211;-92
2022/07/24 00:49:25;;;;;;;;;;;;;;;29.32;41.21;99186.37;4418293;32;34031;-93
2022/07/24 00:51:53;;;;;;;;;;;;;;;29.94;39.93;99187.75;4406750;32;33252;-91
2022/07/24 00:54:21;;;;;;;;;;;;;;;29.74;40.35;99179.25;4421928;32;34774;-92
2022/07/24 00:56:50;;;;;;;;;;;;;;;29.32;41.27;99180.16;4437349;32;34400;-92
2022/07/24 00:59:19;;;;;;;;;;;;;;;30.23;39.47;99172.44;4437609;32;33740;-90
2022/07/24 01:01:46;;;;;;;;;;;;;;;29.66;40.65;99165.50;4423802;32;34141;-92
2022/07/24 01:04:14;;;;;;;;;;;;;;;30.36;39.19;99162.63;4423657;32;34131;-93
2022/07/24 01:06:43;;;;;;;;;;;;;;;29.79;40.53;99154.87;4437621;32;35309;-92
2022/07/24 01:09:11;;;;;;;;;;;;;;;28.96;42.48;99160.16;4415632;32;34146;-92
2022/07/24 01:11:38;;;;;;;;;;;;;;;29.34;41.59;99157.75;4408414;32;33287;-91
2022/07/24 01:14:06;;;;;;;;;;;;;;;29.90;40.38;99155.03;4408488;32;33477;-91
2022/07/24 01:16:34;;;;;;;;;;;;;;;29.29;41.56;99162.53;4408113;32;35186;-93
2022/07/24 01:19:02;;;;;;;;;;;;;;;30.41;39.27;99160.47;4408225;32;34080;-93
2022/07/24 01:21:30;;;;;;;;;;;;;;;30.12;39.70;99164.25;4408302;32;33268;-93
2022/07/24 01:23:59;;;;;;;;;;;;;;;30.00;40.07;99166.81;4422571;32;34962;-92
2022/07/24 01:26:27;;;;;;;;;;;;;;;29.40;40.93;99161.84;4421940;32;35089;-91
2022/07/24 01:28:54;;;;;;;;;;;;;;;29.52;40.75;99141.50;4407915;32;34618;-94
2022/07/24 01:31:21;;;;;;;;;;;;;;;29.41;40.32;99147.53;4407908;32;32080;-93
2022/07/24 01:33:49;;;;;;;;;;;;;;;29.99;38.81;99149.03;4407858;32;34083;-90
2022/07/24 01:36:16;;;;;;;;;;;;;;;29.45;39.80;99146.38;4407752;32;33573;-92
2022/07/24 01:38:44;;;;;;;;;;;;;;;29.40;39.81;99144.94;4435846;32;34857;-93
2022/07/24 01:41:11;;;;;;;;;;;;;;;29.80;38.87;99143.22;4422826;32;32091;-93
2022/07/24 01:43:39;;;;;;;;;;;;;;;29.81;38.75;99131.56;4410163;32;34825;-94
2022/07/24 01:46:07;;;;;;;;;;;;;;;30.22;37.61;99133.28;4407813;32;34234;-93
2022/07/24 01:48:34;;;;;;;;;;;;;;;29.82;38.35;99138.66;4421683;32;34798;-94
2022/07/24 01:51:02;;;;;;;;;;;;;;;29.95;38.00;99136.84;4395448;32;31750;-93
2022/07/24 01:53:30;;;;;;;;;;;;;;;30.35;37.29;99152.03;4407845;32;33970;-94
2022/07/24 01:55:57;;;;;;;;;;;;;;;30.58;36.87;99162.00;4408917;32;35231;-95
2022/07/24 01:58:24;;;;;;;;;;;;;;;29.71;38.18;99162.56;4423179;32;33503;-92
2022/07/24 02:00:52;;;;;;;;;;;;;;;29.64;38.82;99158.56;4397932;32;32580;-91
2022/07/24 02:03:20;;;;;;;;;;;;;;;29.86;39.46;99160.69;4423069;32;33756;-90
2022/07/24 02:05:47;;;;;;;;;;;;;;;30.13;40.02;99149.94;4408958;32;34048;-90
2022/07/24 02:08:14;;;;;;;;;;;;;;;29.01;41.82;99155.41;4423136;32;34776;-91
2022/07/24 02:10:41;;;;;;;;;;;;;;;30.18;41.77;99147.81;4409881;32;32434;-91
2022/07/24 02:13:09;;;;;;;;;;;;;;;30.77;40.64;99149.06;4423028;32;34425;-90
2022/07/24 02:15:36;;;;;;;;;;;;;;;31.32;39.65;99141.56;4432645;32;34357;-89
2022/07/24 02:18:03;;;;;;;;;;;;;;;31.07;40.06;99147.00;4407338;32;34275;-91
2022/07/24 02:20:31;;;;;;;;;;;;;;;30.87;40.09;99151.91;4407551;32;33796;-91
2022/07/24 02:22:58;;;;;;;;;;;;;;;31.50;39.07;99140.22;4421404;32;33966;-90
2022/07/24 02:25:25;;;;;;;;;;;;;;;31.41;39.17;99148.94;4421172;32;34757;-91
2022/07/24 02:27:53;;;;;;;;;;;;;;;31.24;39.32;99144.78;4407547;32;33455;-91
2022/07/24 02:30:21;;;;;;;;;;;;;;;31.36;39.39;99148.41;4423387;32;33840;-91
2022/07/24 02:32:49;;;;;;;;;;;;;;;31.39;39.52;99145.50;4407517;32;33532;-90
2022/07/24 02:35:16;;;;;;;;;;;;;;;31.25;38.50;99148.31;4421720;32;34051;-92
2022/07/24 02:37:44;;;;;;;;;;;;;;;31.27;38.54;99146.38;4421432;32;33627;-91
2022/07/24 02:40:12;;;;;;;;;;;;;;;31.31;38.36;99128.31;4420834;32;33170;-89
2022/07/24 02:42:39;;;;;;;;;;;;;;;31.09;37.64;99123.63;4410173;32;33234;-90
2022/07/24 02:45:07;;;;;;;;;;;;;;;30.32;39.03;99107.63;4422654;32;34782;-91
2022/07/24 02:47:35;;;;;;;;;;;;;;;31.05;37.63;99103.38;4410098;32;34593;-91
2022/07/24 02:50:03;;;;;;;;;;;;;;;31.32;37.88;99090.69;4411741;32;33445;-91
2022/07/24 02:52:30;;;;;;;;;;;;;;;31.43;38.82;99093.41;4391823;32;32933;-91
2022/07/24 02:54:57;;;;;;;;;;;;;;;31.33;37.29;99088.84;4406159;32;34366;-91
2022/07/24 02:57:24;;;;;;;;;;;;;;;30.25;38.27;99084.94;4405500;32;33604;-92
2022/07/24 02:59:52;;;;;;;;;;;;;;;30.34;37.93;99094.13;4404739;32;33097;-90
2022/07/24 03:02:19;;;;;;;;;;;;;;;30.21;38.26;99094.16;4392080;32;34144;-91
2022/07/24 03:04:47;;;;;;;;;;;;;;;30.17;37.91;99092.66;4398243;32;34585;-91
2022/07/24 03:07:14;;;;;;;;;;;;;;;30.26;38.05;99098.19;4422434;32;34103;-92
2022/07/24 03:09:41;;;;;;;;;;;;;;;30.55;37.56;99103.34;4422166;32;32675;-91
2022/07/24 03:12:09;;;;;;;;;;;;;;;29.72;39.52;99105.47;4422448;32;34359;-92
2022/07/24 03:14:37;;;;;;;;;;;;;;;30.39;37.88;99113.41;4436397;32;34172;-90
2022/07/24 03:17:05;;;;;;;;;;;;;;;30.67;37.35;99115.00;4436179;32;33639;-91
2022/07/24 03:19:32;;;;;;;;;;;;;;;30.67;37.99;99117.66;4436372;32;34169;-92
2022/07/24 03:22:00;;;;;;;;;;;;;;;30.75;37.47;99116.19;4422265;32;34055;-90
2022/07/24 03:24:27;;;;;;;;;;;;;;;30.27;38.17;99109.78;4417425;32;34646;-91
2022/07/24 03:26:54;;;;;;;;;;;;;;;29.31;39.73;99109.87;4407180;32;31601;-90
2022/07/24 03:29:22;;;;;;;;;;;;;;;29.88;38.37;99103.47;4422026;32;33192;-90
2022/07/24 03:31:49;;;;;;;;;;;;;;;30.10;37.71;99099.34;4421693;32;33871;-91
2022/07/24 03:34:17;;;;;;;;;;;;;;;30.21;37.47;99076.28;4422458;32;34023;-91
2022/07/24 03:36:44;;;;;;;;;;;;;;;30.10;37.67;99069.94;4436249;32;33884;-90
2022/07/24 03:39:11;;;;;;;;;;;;;;;30.15;37.89;99089.19;4422132;32;31642;-90
2022/07/24 03:41:39;;;;;;;;;;;;;;;30.23;37.99;99100.22;4422470;32;33803;-92
2022/07/24 03:44:06;;;;;;;;;;;;;;;29.80;38.56;99106.66;4414825;32;35117;-92
2022/07/24 03:46:33;;;;;;;;;;;;;;;30.54;37.38;99112.34;4406531;32;34282;-91
2022/07/24 03:49:01;;;;;;;;;;;;;;;30.03;38.29;99114.94;4420841;32;32961;-92
2022/07/24 03:51:29;;;;;;;;;;;;;;;29.57;38.71;99105.53;4420474;32;34137;-92
2022/07/24 03:53:58;;;;;;;;;;;;;;;29.92;38.46;99106.78;4391635;32;32730;-91
2022/07/24 03:56:25;;;;;;;;;;;;;;;30.16;37.81;99107.84;4405230;32;34271;-92
2022/07/24 03:58:53;;;;;;;;;;;;;;;29.31;39.11;99104.53;4391207;32;33145;-92
2022/07/24 04:01:20;;;;;;;;;;;;;;;29.03;39.57;99108.16;4391414;32;34192;-90
2022/07/24 04:03:48;;;;;;;;;;;;;;;29.08;39.87;99114.03;4411445;32;34613;-91
2022/07/24 04:06:15;;;;;;;;;;;;;;;29.39;39.40;99114.72;4421648;32;33555;-91
2022/07/24 04:08:42;;;;;;;;;;;;;;;29.59;38.92;99116.13;4409632;32;32136;-90
2022/07/24 04:11:10;;;;;;;;;;;;;;;29.26;40.03;99120.00;4423789;32;34497;-89
2022/07/24 04:13:37;;;;;;;;;;;;;;;29.10;39.99;99127.31;4438154;32;34885;-92
2022/07/24 04:16:09;;;;;;;;;;;;;;;29.39;39.67;99112.03;4437667;32;34684;-89
2022/07/24 04:18:37;;;;;;;;;;;;;;;29.67;38.91;99112.94;4437822;32;33371;-92
2022/07/24 04:21:05;;;;;;;;;;;;;;;28.08;42.37;99113.97;4423655;32;33728;-90
2022/07/24 04:23:32;;;;;;;;;;;;;;;29.17;39.78;99103.72;4397275;32;34688;-91
2022/07/24 04:25:59;;;;;;;;;;;;;;;28.99;40.53;99108.44;4416645;32;33709;-90
2022/07/24 04:28:26;;;;;;;;;;;;;;;28.46;41.73;99105.50;4423701;32;33419;-87
2022/07/24 04:30:54;;;;;;;;;;;;;;;28.05;42.66;99111.50;4423902;32;33829;-91
2022/07/24 04:33:21;;;;;;;;;;;;;;;29.45;39.68;99113.47;4437665;32;34830;-90
2022/07/24 04:35:48;;;;;;;;;;;;;;;28.81;41.02;99115.78;4422054;32;33082;-90
2022/07/24 04:38:16;;;;;;;;;;;;;;;29.26;40.60;99121.81;4423324;32;32375;-90
2022/07/24 04:40:43;;;;;;;;;;;;;;;29.15;40.59;99125.19;4423554;32;34061;-91
2022/07/24 04:43:10;;;;;;;;;;;;;;;28.55;42.09;99139.59;4423484;32;35085;-91
2022/07/24 04:45:38;;;;;;;;;;;;;;;29.82;39.23;99135.97;4423277;32;33736;-90
2022/07/24 04:48:05;;;;;;;;;;;;;;;28.42;42.20;99146.63;4423470;32;33427;-90
2022/07/24 04:50:33;;;;;;;;;;;;;;;28.47;42.31;99149.88;4413421;32;33809;-92
2022/07/24 04:53:01;;;;;;;;;;;;;;;29.07;41.07;99154.19;4408141;32;34414;-91
2022/07/24 04:55:29;;;;;;;;;;;;;;;29.19;40.83;99160.56;4408159;32;34191;-91
2022/07/24 04:57:56;;;;;;;;;;;;;;;28.76;41.75;99161.41;4422052;32;33059;-91
2022/07/24 05:00:23;;;;;;;;;;;;;;;28.06;43.63;99171.84;4422074;32;33865;-91
2022/07/24 05:02:51;;;;;;;;;;;;;;;28.54;42.32;99174.38;4421944;32;35111;-89
2022/07/24 05:05:18;;;;;;;;;;;;;;;28.54;42.58;99187.69;4432044;32;34223;-91
2022/07/24 05:07:45;;;;;;;;;;;;;;;29.00;41.70;99185.75;4423260;32;32341;-91
2022/07/24 05:10:12;;;;;;;;;;;;;;;29.34;41.11;99186.28;4423404;32;34259;-92
2022/07/24 05:12:40;;;;;;;;;;;;;;;28.40;42.99;99188.53;4437784;32;34882;-91
2022/07/24 05:15:07;;;;;;;;;;;;;;;29.21;41.54;99188.00;4423443;32;33667;-93
2022/07/24 05:17:35;;;;;;;;;;;;;;;29.48;40.96;99190.75;4437322;32;33197;-93
2022/07/24 05:20:04;;;;;;;;;;;;;;;29.31;41.23;99205.16;4412521;32;32891;-92
2022/07/24 05:22:31;;;;;;;;;;;;;;;29.73;40.47;99198.03;4408129;32;34858;-93
2022/07/24 05:24:58;;;;;;;;;;;;;;;30.27;39.29;99212.25;4408276;32;33555;-91
2022/07/24 05:27:25;;;;;;;;;;;;;;;30.18;39.49;99215.53;4407891;32;33418;-92
2022/07/24 05:29:53;;;;;;;;;;;;;;;31.04;38.10;99216.81;4408074;32;34565;-93
2022/07/24 05:32:20;;;;;;;;;;;;;;;30.68;38.60;99216.56;4421613;32;34180;-91
2022/07/24 05:34:47;;;;;;;;;;;;;;;30.67;38.62;99219.34;4431594;32;34447;-92
2022/07/24 05:37:15;;;;;;;;;;;;;;;30.24;39.86;99206.25;4423221;32;33910;-91
2022/07/24 05:39:42;;;;;;;;;;;;;;;30.96;38.41;99215.53;4418162;32;34533;-93
2022/07/24 05:42:10;;;;;;;;;;;;;;;31.39;37.70;99217.00;4421992;32;34989;-92
2022/07/24 05:44:37;;;;;;;;;;;;;;;30.03;40.25;99214.69;4421804;32;33692;-92
2022/07/24 05:47:05;;;;;;;;;;;;;;;30.64;39.13;99217.75;4408011;32;33172;-91
2022/07/24 05:49:33;;;;;;;;;;;;;;;30.10;39.97;99214.31;4421629;32;34158;-92
2022/07/24 05:52:02;;;;;;;;;;;;;;;29.71;41.18;99218.66;4421760;32;34033;-91
2022/07/24 05:54:36;;;;;;;;;;;;;;;29.99;40.50;99212.34;4409107;32;34120;-91
2022/07/24 05:57:03;;;;;;;;;;;;;;;30.16;40.38;99216.59;4395166;32;33409;-92
2022/07/24 05:59:31;;;;;;;;;;;;;;;30.28;39.96;99218.47;4407902;32;33828;-93
2022/07/24 06:01:59;;;;;;;;;;;;;;;29.72;41.15;99217.69;4407726;32;35210;-91
2022/07/24 06:04:29;;;;;;;;;;;;;;;30.38;39.87;99213.31;4421716;32;34926;-91
2022/07/24 06:06:57;;;;;;;;;;;;;;;29.98;40.80;99215.97;4421688;32;34080;-87
2022/07/24 06:09:24;;;;;;;;;;;;;;;30.75;39.82;99217.03;4434870;32;34082;-88
2022/07/24 06:11:51;;;;;;;;;;;;;;;30.51;39.65;99219.56;4404906;32;33896;-92
2022/07/24 06:14:20;;;;;;;;;;;;;;;30.20;40.03;99220.78;4423135;32;34590;-92
2022/07/24 06:16:47;;;;;;;;;;;;;;;31.03;38.61;99226.69;4436643;32;33082;-91
2022/07/24 06:19:15;;;;;;;;;;;;;;;31.07;38.46;99232.69;4422896;32;34141;-91
2022/07/24 06:21:42;;;;;;;;;;;;;;;30.89;38.66;99233.00;4436902;32;34108;-88
2022/07/24 06:24:09;;;;;;;;;;;;;;;30.63;39.52;99225.88;4436906;32;34089;-91
2022/07/24 06:26:36;;;;;;;;;;;;;;;30.25;39.87;99232.03;4412763;32;33908;-94
2022/07/24 06:29:24;;;;;;;;;;;;;;;31.02;38.58;99244.53;4421708;32;33406;-88
2022/07/24 06:31:51;;;;;;;;;;;;;;;30.68;39.12;99243.31;4406712;32;35294;-93
2022/07/24 06:34:23;;;;;;;;;;;;;;;30.94;38.76;99251.41;4407904;32;34475;-90
2022/07/24 06:36:51;;;;;;;;;;;;;;;30.98;38.57;99256.44;4407538;32;32461;-88
2022/07/24 06:39:18;;;;;;;;;;;;;;;30.85;38.45;99249.38;4396345;32;34152;-92
2022/07/24 06:41:45;;;;;;;;;;;;;;;31.58;37.50;99254.03;4432220;32;33790;-92
2022/07/24 06:44:14;;;;;;;;;;;;;;;31.69;37.58;99256.78;4422564;32;34423;-93
2022/07/24 06:46:42;;;;;;;;;;;;;;;32.00;37.64;99249.19;4422733;32;32830;-89
2022/07/24 06:49:09;;;;;;;;;;;;;;;31.74;37.60;99251.94;4422721;32;34872;-92
2022/07/24 06:51:41;;;;;;;;;;;;;;;31.66;38.02;99251.66;4423276;32;34281;-92
2022/07/24 06:54:08;;;;;;;;;;;;;;;31.65;37.69;99261.50;4414649;32;32261;-94
2022/07/24 06:56:35;;;;;;;;;;;;;;;31.60;37.57;99263.69;4417652;32;32922;-93
2022/07/24 06:59:03;;;;;;;;;;;;;;;31.67;37.81;99264.94;4406800;32;34025;-92
2022/07/24 07:01:33;;;;;;;;;;;;;;;31.29;37.77;99259.63;4412252;32;35195;-90
2022/07/24 07:04:01;;;;;;;;;;;;;;;30.99;38.82;99273.38;4409922;32;34757;-94
2022/07/24 07:06:28;;;;;;;;;;;;;;;31.74;37.29;99276.91;4406982;32;33159;-92
2022/07/24 07:08:56;;;;;;;;;;;;;;;31.54;37.48;99271.31;4407186;32;33374;-95
2022/07/24 07:11:23;;;;;;;;;;;;;;;31.74;37.21;99273.38;4421095;32;34423;-90
2022/07/24 07:13:51;;;;;;;;;;;;;;;32.42;35.62;99270.13;4420485;32;34913;-94
2022/07/24 07:16:18;;;;;;;;;;;;;;;32.34;36.28;99267.16;4421205;32;33147;-93
2022/07/24 07:18:46;;;;;;;;;;;;;;;32.21;36.06;99266.38;4421283;32;34161;-90
2022/07/24 07:21:13;;;;;;;;;;;;;;;32.50;35.57;99268.69;4419777;32;35419;-92
2022/07/24 07:23:40;;;;;;;;;;;;;;;32.92;34.51;99268.09;4410338;32;34707;-92
2022/07/24 07:26:11;;;;;;;;;;;;;;;33.06;33.67;99266.16;4409537;32;33387;-92
2022/07/24 07:28:39;;;;;;;;;;;;;;;33.21;33.56;99267.63;4425119;32;35109;-92
2022/07/24 07:31:06;;;;;;;;;;;;;;;33.36;32.64;99274.47;4436362;32;35368;-93
2022/07/24 07:33:33;;;;;;;;;;;;;;;32.51;34.51;99270.44;4408431;32;34337;-92
2022/07/24 07:36:02;;;;;;;;;;;;;;;32.68;35.65;99275.34;4420510;32;34089;-92
2022/07/24 07:38:29;;;;;;;;;;;;;;;32.48;35.43;99270.66;4415325;32;34655;-88
2022/07/24 07:40:56;;;;;;;;;;;;;;;31.76;34.98;99268.78;4400866;32;34372;-93
2022/07/24 07:43:24;;;;;;;;;;;;;;;33.17;33.51;99268.87;4434231;32;34979;-90
2022/07/24 07:45:51;;;;;;;;;;;;;;;32.61;33.63;99269.59;4409786;32;33509;-90
2022/07/24 07:48:18;;;;;;;;;;;;;;;32.66;34.43;99269.25;4436264;32;34186;-91
2022/07/24 07:50:46;;;;;;;;;;;;;;;32.39;34.16;99267.69;4393763;32;34154;-90
2022/07/24 07:53:13;;;;;;;;;;;;;;;32.27;34.27;99270.41;4427945;32;34045;-92
2022/07/24 07:55:40;;;;;;;;;;;;;;;32.82;32.68;99264.41;4408332;32;31871;-91
2022/07/24 07:58:08;;;;;;;;;;;;;;;32.85;32.60;99264.16;4398355;32;32982;-88
2022/07/24 08:00:35;;;;;;;;;;;;;;;32.30;33.47;99262.97;4417334;32;33881;-89
2022/07/24 08:03:03;;;;;;;;;;;;;;;31.92;34.08;99282.78;4408257;32;33991;-93
2022/07/24 08:05:30;;;;;;;;;;;;;;;32.93;32.52;99261.75;4419863;32;33398;-92
2022/07/24 08:07:57;;;;;;;;;;;;;;;32.67;33.69;99276.31;4419230;32;34246;-95
2022/07/24 08:10:25;;;;;;;;;;;;;;;31.57;33.95;99268.41;4392997;32;35163;-92
2022/07/24 08:12:52;;;;;;;;;;;;;;;31.94;33.47;99271.97;4403855;32;34482;-91
2022/07/24 08:15:20;;;;;;;;;;;;;;;31.12;33.89;99270.69;4405606;32;34189;-93
2022/07/24 08:17:57;;;;;;;;;;;;;;;31.52;33.83;99275.91;4391209;32;34777;-94
2022/07/24 08:20:24;;;;;;;;;;;;;;;32.13;33.41;99271.47;4401520;32;33552;-92
2022/07/24 08:22:52;;;;;;;;;;;;;;;32.37;32.50;99269.59;4414422;32;34175;-93
2022/07/24 08:25:19;;;;;;;;;;;;;;;31.70;33.24;99277.25;4403947;32;33357;-92
2022/07/24 08:27:47;;;;;;;;;;;;;;;31.94;33.39;99272.81;4403356;32;33676;-90
2022/07/24 08:30:14;;;;;;;;;;;;;;;32.14;33.38;99286.56;4416401;32;34012;-95
2022/07/24 08:32:43;;;;;;;;;;;;;;;31.97;33.55;99283.34;4403569;32;34112;-95
2022/07/24 08:35:11;;;;;;;;;;;;;;;31.95;33.85;99282.56;4418029;32;33265;-89
2022/07/24 08:37:40;;;;;;;;;;;;;;;32.03;33.50;99283.84;4435674;32;34315;-91
2022/07/24 08:40:07;;;;;;;;;;;;;;;32.50;32.77;99272.22;4400734;32;34280;-92
2022/07/24 08:42:35;;;;;;;;;;;;;;;32.22;33.16;99284.19;4391700;32;33116;-94
2022/07/24 08:45:04;;;;;;;;;;;;;;;32.76;32.89;99272.91;4404089;32;33724;-94
2022/07/24 08:47:34;;;;;;;;;;;;;;;32.36;33.04;99280.47;4403558;32;34092;-94
2022/07/24 08:50:04;;;;;;;;;;;;;;;32.88;32.07;99284.53;4403535;32;34155;-93
2022/07/24 08:52:31;;;;;;;;;;;;;;;32.33;32.12;99294.97;4403171;32;34539;-90
2022/07/24 08:54:59;;;;;;;;;;;;;;;32.72;31.88;99278.66;4403991;32;33314;-89
2022/07/24 08:57:26;;;;;;;;;;;;;;;32.68;31.54;99286.94;4405595;32;33870;-95
2022/07/24 08:59:54;;;;;;;;;;;;;;;32.76;32.14;99297.09;4406747;32;34268;-92
2022/07/24 09:02:21;;;;;;;;;;;;;;;32.85;31.69;99277.59;4406797;32;34445;-89
2022/07/24 09:04:49;;;;;;;;;;;;;;;32.84;30.94;99286.59;4413855;32;32618;-93
2022/07/24 09:07:19;;;;;;;;;;;;;;;32.87;32.02;99288.19;4422252;32;33978;-90
2022/07/24 09:09:59;;;;;;;;;;;;;;;32.76;31.28;99291.72;4421771;32;35252;-93
2022/07/24 09:12:30;;;;;;;;;;;;;;;32.90;31.18;99290.66;4406801;32;32665;-92
2022/07/24 09:14:58;;;;;;;;;;;;;;;32.73;31.43;99289.25;4408139;32;33174;-90
2022/07/24 09:17:25;;;;;;;;;;;;;;;32.72;31.44;99292.91;4400024;32;34158;-91
2022/07/24 09:19:54;;;;;;;;;;;;;;;32.79;31.17;99298.69;4406962;32;34890;-91
2022/07/24 09:22:30;;;;;;;;;;;;;;;32.32;31.24;99297.78;4406506;32;34226;-93
2022/07/24 09:25:12;;;;;;;;;;;;;;;32.30;31.37;99295.19;4405192;32;33477;-92
2022/07/24 09:27:41;;;;;;;;;;;;;;;33.15;30.35;99292.31;4395710;32;33239;-90
2022/07/24 09:30:09;;;;;;;;;;;;;;;32.78;31.38;99299.66;4417891;32;33972;-90
2022/07/24 09:32:39;;;;;;;;;;;;;;;32.97;30.52;99299.97;4417532;32;34722;-92
2022/07/24 09:35:06;;;;;;;;;;;;;;;33.14;30.24;99291.44;4409390;32;32543;-90
2022/07/24 09:37:34;;;;;;;;;;;;;;;33.67;28.81;99298.94;4433095;32;34088;-90
2022/07/24 09:40:06;;;;;;;;;;;;;;;33.08;28.07;99296.47;4423176;32;34323;-93
2022/07/24 09:42:38;;;;;;;;;;;;;;;33.12;28.60;99297.94;4410205;32;33632;-92
2022/07/24 09:45:08;;;;;;;;;;;;;;;33.74;28.01;99301.97;4411071;32;33268;-89
2022/07/24 09:47:36;;;;;;;;;;;;;;;34.28;27.16;99303.81;4407468;32;33529;-92
2022/07/24 09:50:13;;;;;;;;;;;;;;;34.12;28.59;99305.09;4405133;32;34067;-92
2022/07/24 09:52:42;;;;;;;;;;;;;;;34.07;28.98;99311.84;4432080;32;34834;-89
2022/07/24 09:55:19;;;;;;;;;;;;;;;33.63;29.31;99303.69;4397662;32;33016;-91
2022/07/24 09:57:47;;;;;;;;;;;;;;;33.64;29.05;99310.81;4421683;32;32830;-90
2022/07/24 10:00:14;;;;;;;;;;;;;;;33.34;28.30;99308.69;4420821;32;34707;-90
2022/07/24 10:02:43;;;;;;;;;;;;;;;34.07;27.16;99296.56;4394869;32;32363;-92
2022/07/24 10:05:10;;;;;;;;;;;;;;;33.54;27.80;99301.75;4407449;32;33451;-91
2022/07/24 10:07:46;;;;;;;;;;;;;;;33.09;28.69;99303.53;4407445;32;33184;-91
2022/07/24 10:10:13;;;;;;;;;;;;;;;33.61;28.29;99307.50;4407681;32;35068;-91
2022/07/24 10:12:40;;;;;;;;;;;;;;;33.84;27.33;99306.50;4407452;32;33847;-92
2022/07/24 10:15:09;;;;;;;;;;;;;;;33.83;27.75;99302.09;4407561;32;33912;-91
2022/07/24 10:17:39;;;;;;;;;;;;;;;34.60;25.70;99298.47;4400344;32;32799;-89
2022/07/24 10:20:07;;;;;;;;;;;;;;;34.31;27.01;99299.03;4406068;32;34523;-91
2022/07/24 10:23:04;;;;;;;;;;;;;;;34.48;26.32;99296.78;4404983;32;35070;-95
2022/07/24 10:25:40;;;;;;;;;;;;;;;33.24;27.11;99296.09;4379944;32;31902;-91
2022/07/24 10:28:08;;;;;;;;;;;;;;;33.30;25.96;99301.88;4405167;32;34628;-93
2022/07/24 10:40:03;;;;;;;;;;;;;;;33.88;25.24;99316.00;4389669;32;33003;-90
2022/07/24 10:42:30;;;;;;;;;;;;;;;33.40;25.65;99308.19;4392160;32;33629;-91
2022/07/24 10:45:17;;;;;;;;;;;;;;;32.81;26.32;99304.81;4392286;32;33679;-91
2022/07/24 10:47:45;;;;;;;;;;;;;;;33.04;26.11;99308.44;4431309;32;33196;-87
2022/07/24 10:50:14;;;;;;;;;;;;;;;34.05;24.95;99298.50;4420732;32;33870;-92
2022/07/24 10:52:41;;;;;;;;;;;;;;;33.95;26.21;99300.25;4426840;32;35150;-93
2022/07/24 10:55:21;;;;;;;;;;;;;;;33.49;24.12;99305.78;4424068;32;34136;-91
2022/07/24 10:58:01;;;;;;;;;;;;;;;33.99;24.85;99299.03;4394448;32;33551;-92
2022/07/24 11:00:29;;;;;;;;;;;;;;;33.93;24.82;99301.34;4412322;32;34290;-93
2022/07/24 11:03:00;;;;;;;;;;;;;;;32.85;26.69;99292.84;4408437;32;34441;-91
2022/07/24 11:05:30;;;;;;;;;;;;;;;33.53;25.87;99286.63;4421886;32;34942;-88
2022/07/24 11:08:16;;;;;;;;;;;;;;;34.23;24.68;99304.22;4421348;32;33354;-91
2022/07/24 11:10:46;;;;;;;;;;;;;;;33.52;25.80;99290.25;4422634;32;34225;-90
2022/07/24 11:13:37;;;;;;;;;;;;;;;32.60;24.87;99293.88;4412879;32;34382;-91
2022/07/24 11:16:14;;;;;;;;;;;;;;;33.88;23.70;99286.44;4400819;32;33944;-91
2022/07/24 11:19:02;;;;;;;;;;;;;;;33.52;24.21;99287.56;4420428;32;34257;-92
2022/07/24 11:21:31;;;;;;;;;;;;;;;34.20;23.35;99293.69;4420675;32;34256;-90
2022/07/24 11:24:14;;;;;;;;;;;;;;;34.36;23.77;99282.50;4407496;32;34140;-95
2022/07/24 11:26:47;;;;;;;;;;;;;;;33.40;24.21;99270.56;4421266;32;35017;-94
2022/07/24 11:29:16;;;;;;;;;;;;;;;33.54;24.15;99277.56;4407717;32;33031;-89
2022/07/24 11:31:44;;;;;;;;;;;;;;;34.62;21.92;99274.94;4420761;32;34854;-92
2022/07/24 11:34:11;;;;;;;;;;;;;;;34.43;23.43;99266.69;4422704;32;34504;-93
2022/07/24 11:36:39;;;;;;;;;;;;;;;34.48;21.76;99269.87;4410614;32;34258;-92
2022/07/24 11:39:06;;;;;;;;;;;;;;;35.31;22.24;99271.72;4420599;32;33062;-92
2022/07/24 11:41:50;;;;;;;;;;;;;;;34.98;21.90;99270.94;4414673;32;33540;-92
2022/07/24 11:44:37;;;;;;;;;;;;;;;34.54;22.83;99266.69;4414422;32;34536;-94
2022/07/24 11:47:07;;;;;;;;;;;;;;;34.29;22.95;99252.59;4394769;32;33584;-90
2022/07/24 11:49:38;;;;;;;;;;;;;;;34.59;21.95;99269.84;4406518;32;32636;-92
2022/07/24 11:52:05;;;;;;;;;;;;;;;34.86;21.29;99259.41;4406762;32;33958;-94
2022/07/24 11:54:32;;;;;;;;;;;;;;;35.09;20.59;99261.97;4391736;32;35291;-88
2022/07/24 11:57:00;;;;;;;;;;;;;;;35.24;19.46;99255.22;4405238;32;33918;-93
2022/07/24 11:59:32;;;;;;;;;;;;;;;34.99;20.97;99255.63;4392193;32;778072;-88
2022/07/24 12:02:06;;;;;;;;;;;;;;;34.54;21.63;99259.44;4403684;32;32951;-94
2022/07/24 12:04:34;;;;;;;;;;;;;;;35.08;20.94;99261.09;4405002;32;35468;-91
2022/07/24 12:07:06;;;;;;;;;;;;;;;35.77;19.94;99241.50;4416826;32;34987;-92
2022/07/24 12:09:43;;;;;;;;;;;;;;;34.80;21.02;99250.97;4416490;32;32126;-92
2022/07/24 12:12:17;;;;;;;;;;;;;;;34.57;21.10;99247.56;4416245;32;33860;-91
2022/07/24 12:14:46;;;;;;;;;;;;;;;34.37;20.28;99243.88;4416560;32;34438;-93
2022/07/24 12:17:13;;;;;;;;;;;;;;;34.62;19.57;99237.25;4405207;32;34611;-89
2022/07/24 12:19:40;;;;;;;;;;;;;;;34.57;19.05;99247.56;4419554;32;33571;-96
2022/07/24 12:22:08;;;;;;;;;;;;;;;33.96;19.11;99247.28;4406117;32;34074;-89
2022/07/24 12:24:36;;;;;;;;;;;;;;;33.91;19.28;99245.00;4419469;32;33942;-95
2022/07/24 12:27:03;;;;;;;;;;;;;;;34.19;18.57;99245.41;4420587;32;33716;-92
2022/07/24 12:29:30;;;;;;;;;;;;;;;34.57;18.80;99240.34;4425753;32;34052;-92
2022/07/24 12:32:16;;;;;;;;;;;;;;;34.12;19.41;99240.53;4423664;32;35004;-92
2022/07/24 12:34:45;;;;;;;;;;;;;;;34.43;19.81;99237.94;4437696;32;34369;-92
2022/07/24 12:37:32;;;;;;;;;;;;;;;35.33;19.44;99235.53;4410632;32;34391;-92
2022/07/24 12:39:59;;;;;;;;;;;;;;;35.34;18.51;99237.22;4415918;32;34219;-96
2022/07/24 12:42:31;;;;;;;;;;;;;;;35.83;18.69;99229.28;4413645;32;34766;-91
2022/07/24 12:45:08;;;;;;;;;;;;;;;35.17;17.10;99229.78;4424511;32;33867;-93
2022/07/24 12:47:55;;;;;;;;;;;;;;;34.21;17.62;99238.94;4408398;32;34043;-93
2022/07/24 12:50:27;;;;;;;;;;;;;;;34.95;17.12;99225.41;4422269;32;33223;-96
2022/07/24 12:53:14;;;;;;;;;;;;;;;35.47;16.95;99228.91;4422501;32;33605;-91
2022/07/24 12:55:42;;;;;;;;;;;;;;;35.10;17.05;99234.88;4398477;32;33572;-90
2022/07/24 12:58:09;;;;;;;;;;;;;;;34.28;17.79;99225.78;4422381;32;33930;-93
2022/07/24 13:00:36;;;;;;;;;;;;;;;35.32;17.44;99219.50;4424031;32;34311;-92
2022/07/24 13:03:04;;;;;;;;;;;;;;;35.08;17.26;99212.59;4423108;32;34076;-94
2022/07/24 13:05:38;;;;;;;;;;;;;;;36.05;15.99;99217.41;4423500;32;35270;-94